createdAt,value
2022-11-05T00:02:29.376Z,100061.22
2022-11-05T00:05:18.075Z,100067.69
2022-11-05T00:08:13.966Z,100071.81
2022-11-05T00:10:46.697Z,100066.56
2022-11-05T00:13:42.833Z,100056.31
2022-11-05T00:16:32.036Z,99930.47
2022-11-05T00:22:09.062Z,99919.59
2022-11-05T00:24:59.430Z,99910.03
2022-11-05T00:28:05.041Z,99907.44
2022-11-05T00:30:33.878Z,99904.53
2022-11-05T00:33:05.216Z,99906.06
2022-11-05T00:35:35.002Z,99913.44
2022-11-05T00:38:07.428Z,99919.88
2022-11-05T00:40:44.055Z,99917.81
2022-11-05T00:43:33.141Z,99930.66
2022-11-05T00:46:02.498Z,99938.19
2022-11-05T00:48:49.519Z,99936.00
2022-11-05T00:51:18.047Z,99942.63
2022-11-05T00:53:51.262Z,99947.66
2022-11-05T00:56:25.996Z,99948.63
2022-11-05T00:58:59.953Z,99948.03
2022-11-05T01:06:51.118Z,99950.97
2022-11-05T01:09:23.018Z,99960.28
2022-11-05T01:11:56.140Z,99951.16
2022-11-05T01:14:28.414Z,99954.44
2022-11-05T01:16:59.879Z,99962.72
2022-11-05T01:27:50.731Z,99974.59
2022-11-05T01:30:21.655Z,99978.63
2022-11-05T01:36:10.195Z,99976.63
2022-11-05T01:41:34.056Z,99983.22
2022-11-05T01:44:22.308Z,99992.44
2022-11-05T01:47:00.143Z,99988.13
2022-11-05T01:49:36.068Z,99995.00
2022-11-05T01:52:16.815Z,99994.94
2022-11-05T01:54:48.723Z,100004.50
2022-11-05T01:57:20.874Z,100003.38
2022-11-05T01:59:56.827Z,100008.81
2022-11-05T02:02:32.240Z,100001.03
2022-11-05T02:05:07.443Z,100001.91
2022-11-05T02:07:39.789Z,100009.19
2022-11-05T02:10:18.791Z,100015.81
2022-11-05T02:16:23.904Z,100011.84
2022-11-05T02:19:24.883Z,100003.69
2022-11-05T02:22:16.870Z,100008.97
2022-11-05T02:28:29.454Z,100005.78
2022-11-05T02:31:09.893Z,100004.91
2022-11-05T02:34:03.627Z,99999.16
2022-11-05T02:39:41.040Z,99992.03
2022-11-05T02:43:04.640Z,100000.06
2022-11-05T02:46:05.333Z,100000.53
2022-11-05T02:49:11.862Z,99994.94
2022-11-05T02:54:56.756Z,100008.03
2022-11-05T03:00:04.354Z,99997.25
2022-11-05T03:02:36.617Z,100001.09
2022-11-05T03:05:13.926Z,99995.53
2022-11-05T03:07:51.219Z,99982.66
2022-11-05T03:10:53.002Z,99982.97
2022-11-05T03:13:25.693Z,99988.81
2022-11-05T03:16:05.055Z,99991.44
2022-11-05T03:18:44.945Z,99986.81
2022-11-05T03:21:19.235Z,99983.28
2022-11-05T03:24:01.041Z,99986.13
2022-11-05T03:26:46.822Z,99999.41
2022-11-05T03:29:31.470Z,99993.16
2022-11-05T03:32:04.933Z,100007.56
2022-11-05T03:34:41.547Z,100000.28
2022-11-05T03:37:14.393Z,99985.28
2022-11-05T03:39:52.280Z,99984.13
2022-11-05T03:42:28.149Z,99990.53
2022-11-05T03:45:07.746Z,99984.41
2022-11-05T03:47:42.637Z,99990.16
2022-11-05T03:50:20.100Z,99992.00
2022-11-05T03:52:57.091Z,99992.75
2022-11-05T03:55:44.642Z,99983.94
2022-11-05T03:58:15.411Z,99988.34
2022-11-05T04:00:46.079Z,99992.38
2022-11-05T04:03:15.618Z,99975.00
2022-11-05T04:06:05.277Z,99973.59
2022-11-05T04:08:55.038Z,99968.69
2022-11-05T04:14:47.049Z,99958.22
2022-11-05T04:17:26.480Z,99954.00
2022-11-05T04:20:15.036Z,99957.22
2022-11-05T04:25:56.044Z,99960.03
2022-11-05T04:28:48.435Z,99967.59
2022-11-05T04:31:19.093Z,99967.75
2022-11-05T04:33:51.905Z,99964.56
2022-11-05T04:36:22.030Z,99975.16
2022-11-05T04:38:53.574Z,99974.47
2022-11-05T04:41:23.068Z,99974.50
2022-11-05T04:49:55.123Z,99971.84
2022-11-05T04:52:25.339Z,99971.72
2022-11-05T04:54:55.324Z,99979.06
2022-11-05T04:57:26.132Z,99977.13
2022-11-05T04:59:55.957Z,99978.84
2022-11-05T05:02:26.704Z,99974.09
2022-11-05T05:04:56.784Z,99980.56
2022-11-05T05:07:27.089Z,99983.69
2022-11-05T05:12:50.918Z,100065.34
2022-11-05T05:15:23.058Z,100069.13
2022-11-05T05:17:54.801Z,100067.75
2022-11-05T05:20:41.945Z,100065.81
2022-11-05T05:23:13.771Z,100063.59
2022-11-05T05:25:46.257Z,100063.88
2022-11-05T05:28:30.135Z,100056.34
2022-11-05T05:31:01.879Z,100071.78
2022-11-05T05:33:32.006Z,100062.00
2022-11-05T05:36:04.667Z,100066.25
2022-11-05T05:38:37.295Z,100062.16
2022-11-05T05:41:05.426Z,100057.94
2022-11-05T05:43:35.167Z,100067.31
2022-11-05T05:46:09.411Z,100069.06
2022-11-05T05:48:38.664Z,100068.84
2022-11-05T05:51:10.159Z,100064.09
2022-11-05T05:53:42.137Z,100069.34
2022-11-05T05:56:12.194Z,100069.59
2022-11-05T05:58:40.877Z,100065.06
2022-11-05T06:01:18.377Z,100071.22
2022-11-05T06:03:47.812Z,100074.53
2022-11-05T06:06:23.881Z,100076.41
2022-11-05T06:08:53.972Z,100073.88
2022-11-05T06:11:24.537Z,100071.50
2022-11-05T06:13:54.766Z,100063.75
2022-11-05T06:19:33.285Z,100062.44
2022-11-05T06:22:04.114Z,100061.28
2022-11-05T06:24:34.789Z,100065.94
2022-11-05T06:27:07.200Z,100069.59
2022-11-05T06:29:37.207Z,100079.09
2022-11-05T06:32:07.404Z,100073.56
2022-11-05T06:34:39.868Z,100076.16
2022-11-05T06:37:10.338Z,100076.94
2022-11-05T06:39:42.220Z,100078.75
2022-11-05T06:42:25.510Z,100077.47
2022-11-05T06:44:56.170Z,100080.41
2022-11-05T06:47:29.107Z,100078.16
2022-11-05T06:50:02.441Z,100082.13
2022-11-05T06:53:20.775Z,100084.25
2022-11-05T06:55:58.250Z,100083.63
2022-11-05T06:58:32.635Z,100080.16
2022-11-05T07:01:08.370Z,100091.28
2022-11-05T07:03:38.000Z,100091.84
2022-11-05T07:06:18.837Z,100092.59
2022-11-05T07:08:55.067Z,100091.53
2022-11-05T07:14:14.349Z,100095.31
2022-11-05T07:16:47.371Z,100092.28
2022-11-05T07:19:18.831Z,100095.75
2022-11-05T07:22:10.648Z,100087.09
2022-11-05T07:24:44.982Z,100088.38
2022-11-05T07:27:24.543Z,100081.47
2022-11-05T07:29:55.202Z,100087.63
2022-11-05T07:35:22.072Z,100089.28
2022-11-05T07:37:55.529Z,100098.53
2022-11-05T07:40:39.381Z,100098.97
2022-11-05T07:43:10.947Z,100089.00
2022-11-05T07:45:46.035Z,100097.19
2022-11-05T07:48:15.475Z,100102.81
2022-11-05T07:50:48.495Z,100098.69
2022-11-05T07:53:23.561Z,100106.50
2022-11-05T08:01:34.764Z,100113.59
2022-11-05T08:04:20.383Z,100110.56
2022-11-05T08:06:50.056Z,100110.81
2022-11-05T08:09:27.612Z,100121.09
2022-11-05T08:12:02.671Z,100126.91
2022-11-05T08:14:44.045Z,100122.66
2022-11-05T08:17:18.220Z,100125.34
2022-11-05T08:19:48.435Z,100134.38
2022-11-05T08:22:23.576Z,100135.44
2022-11-05T08:24:53.850Z,100141.66
2022-11-05T08:27:35.864Z,100150.25
2022-11-05T08:30:13.198Z,100150.25
2022-11-05T08:32:42.350Z,100148.84
2022-11-05T08:35:10.019Z,100147.72
2022-11-05T08:37:39.756Z,100147.44
2022-11-05T08:40:36.795Z,100141.56
2022-11-05T08:43:10.803Z,100149.00
2022-11-05T08:45:39.795Z,100159.00
2022-11-05T08:48:37.525Z,100150.34
2022-11-05T08:51:04.746Z,100155.03
2022-11-05T08:53:36.179Z,100163.31
2022-11-05T08:56:05.949Z,100168.63
2022-11-05T08:58:37.834Z,100175.78
2022-11-05T09:01:16.347Z,100187.59
2022-11-05T09:03:47.580Z,100195.00
2022-11-05T09:09:00.958Z,100218.41
2022-11-05T09:11:49.551Z,100225.81
2022-11-05T09:14:18.309Z,100237.50
2022-11-05T09:16:49.121Z,100240.13
2022-11-05T09:19:18.474Z,100255.41
2022-11-05T09:21:52.113Z,100258.91
2022-11-05T09:24:26.294Z,100267.56
2022-11-05T09:26:55.629Z,100273.25
2022-11-05T09:29:23.655Z,100275.78
2022-11-05T09:32:15.079Z,100290.59
2022-11-05T09:34:50.792Z,100397.25
2022-11-05T09:37:17.411Z,100407.63
2022-11-05T09:39:44.666Z,100419.69
2022-11-05T09:42:16.176Z,100431.44
2022-11-05T09:44:48.289Z,100442.19
2022-11-05T09:47:38.553Z,100460.56
2022-11-05T09:50:15.436Z,100467.09
2022-11-05T09:52:42.202Z,100482.06
2022-11-05T09:55:30.886Z,100484.34
2022-11-05T09:58:03.609Z,100499.13
2022-11-05T10:00:32.155Z,100463.06
2022-11-05T10:03:04.451Z,100463.19
2022-11-05T10:05:34.047Z,100457.88
2022-11-05T10:08:27.494Z,100470.84
2022-11-05T10:10:59.185Z,100476.84
2022-11-05T10:13:35.004Z,100490.59
2022-11-05T10:16:04.219Z,100491.84
2022-11-05T10:18:41.349Z,100496.69
2022-11-05T10:21:16.736Z,100507.38
2022-11-05T10:23:45.040Z,100527.25
2022-11-05T10:26:16.106Z,100526.50
2022-11-05T10:28:42.998Z,100550.13
2022-11-05T10:31:16.618Z,100552.38
2022-11-05T10:34:01.488Z,100556.97
2022-11-05T10:36:32.719Z,100557.16
2022-11-05T10:39:27.969Z,100554.78
2022-11-05T10:42:26.012Z,100572.75
2022-11-05T10:45:37.108Z,100576.41
2022-11-05T10:48:43.673Z,100599.69
2022-11-05T10:51:11.239Z,100610.19
2022-11-05T10:53:39.722Z,100633.28
2022-11-05T10:56:36.781Z,100634.78
2022-11-05T10:59:10.940Z,100641.63
2022-11-05T11:01:39.410Z,100650.09
2022-11-05T11:04:17.587Z,100658.50
2022-11-05T11:06:49.863Z,100672.81
2022-11-05T11:09:24.722Z,100672.91
2022-11-05T11:12:07.445Z,100675.69
2022-11-05T11:15:02.269Z,100701.56
2022-11-05T11:17:31.674Z,100721.78
2022-11-05T11:20:26.033Z,100732.94
2022-11-05T11:23:15.278Z,100749.66
2022-11-05T11:26:01.809Z,100754.28
2022-11-05T11:28:54.491Z,100785.75
2022-11-05T11:31:23.764Z,100800.75
2022-11-05T11:34:03.589Z,100795.50
2022-11-05T11:36:44.625Z,100798.97
2022-11-05T11:39:18.462Z,100822.47
2022-11-05T11:41:49.785Z,100826.81
2022-11-05T11:44:21.015Z,100829.56
2022-11-05T11:46:54.130Z,100848.94
2022-11-05T11:49:49.290Z,100858.16
2022-11-05T11:52:21.365Z,100882.47
2022-11-05T11:54:48.384Z,100896.63
2022-11-05T11:57:26.393Z,100913.19
2022-11-05T12:00:11.537Z,100936.38
2022-11-05T12:03:17.354Z,100936.91
2022-11-05T12:06:05.760Z,100950.09
2022-11-05T12:08:59.299Z,100953.59
2022-11-05T12:12:10.314Z,100973.53
2022-11-05T12:14:56.655Z,100968.31
2022-11-05T12:17:38.430Z,100978.00
2022-11-05T12:20:34.137Z,100990.38
2022-11-05T12:23:35.771Z,101004.50
2022-11-05T12:26:11.785Z,101003.59
2022-11-05T12:28:57.755Z,101011.50
2022-11-05T12:32:02.971Z,101025.25
2022-11-05T12:34:30.064Z,101033.13
2022-11-05T12:41:19.685Z,101076.03
2022-11-05T12:44:04.084Z,101081.34
2022-11-05T12:47:15.444Z,101088.50
2022-11-05T12:50:00.938Z,101099.53
2022-11-05T12:52:41.097Z,101118.59
2022-11-05T12:55:40.107Z,101124.50
2022-11-05T12:58:18.942Z,101128.44
2022-11-05T13:00:51.827Z,101137.50
2022-11-05T13:03:32.606Z,101147.13
2022-11-05T13:06:07.515Z,101147.88
2022-11-05T13:08:45.072Z,101150.06
2022-11-05T13:11:20.037Z,101175.09
2022-11-05T13:13:59.786Z,101173.34
2022-11-05T13:16:36.208Z,101183.38
2022-11-05T13:19:15.125Z,101188.50
2022-11-05T13:21:55.975Z,101188.19
2022-11-05T13:24:35.039Z,101198.63
2022-11-05T13:27:29.950Z,101203.75
2022-11-05T13:30:03.029Z,101204.28
2022-11-05T13:32:34.819Z,101204.06
2022-11-05T13:35:04.985Z,101202.53
2022-11-05T13:37:55.379Z,101209.25
2022-11-05T13:40:46.822Z,101222.06
2022-11-05T13:43:50.823Z,101218.53
2022-11-05T13:46:40.618Z,101221.91
2022-11-05T13:49:13.532Z,101223.09
2022-11-05T13:51:51.337Z,101221.91
2022-11-05T13:55:00.762Z,101225.84
2022-11-05T13:58:08.291Z,101220.63
2022-11-05T14:01:01.220Z,101209.16
2022-11-05T14:03:29.742Z,101197.84
2022-11-05T14:06:04.933Z,101214.09
2022-11-05T14:08:45.846Z,101214.31
2022-11-05T14:11:24.249Z,101212.34
2022-11-05T14:13:56.987Z,101220.16
2022-11-05T14:16:39.946Z,101219.53
2022-11-05T14:19:19.487Z,101221.47
2022-11-05T14:21:52.419Z,101239.16
2022-11-05T14:24:27.612Z,101239.09
2022-11-05T14:27:03.260Z,101245.63
2022-11-05T14:29:52.429Z,101247.50
2022-11-05T14:32:20.034Z,101239.06
2022-11-05T14:35:20.447Z,101234.41
2022-11-05T14:37:59.644Z,101237.88
2022-11-05T14:41:10.952Z,101239.16
2022-11-05T15:08:00.090Z,101219.00
2022-11-05T15:10:34.706Z,101219.28
2022-11-05T15:15:48.256Z,101212.31
2022-11-05T15:18:23.325Z,101203.41
2022-11-05T17:19:53.732Z,101016.47
2022-11-05T17:22:22.777Z,101017.44
2022-11-05T20:57:19.078Z,100975.00
2022-11-05T21:37:30.409Z,101013.47
